createdAt,value
2023-05-08T00:01:44.115Z,12.23
2023-05-08T00:04:52.273Z,12.25
2023-05-08T00:08:07.138Z,12.25
2023-05-08T00:11:15.113Z,12.21
2023-05-08T00:14:30.121Z,12.20
2023-05-08T00:17:48.767Z,12.14
2023-05-08T00:20:57.085Z,12.05
2023-05-08T00:24:12.220Z,12.02
2023-05-08T00:27:14.201Z,12.06
2023-05-08T00:30:29.118Z,12.11
2023-05-08T00:33:31.023Z,12.15
2023-05-08T00:36:46.467Z,12.20
2023-05-08T00:40:01.419Z,12.22
2023-05-08T00:43:09.867Z,12.15
2023-05-08T00:46:18.181Z,12.11
2023-05-08T00:49:27.031Z,12.09
2023-05-08T00:52:38.190Z,12.09
2023-05-08T00:55:54.143Z,12.14
2023-05-08T00:59:03.101Z,12.19
2023-05-08T01:02:18.236Z,12.15
2023-05-08T01:05:27.134Z,12.04
2023-05-08T01:08:35.826Z,12.14
2023-05-08T01:11:56.169Z,12.13
2023-05-08T01:15:19.941Z,12.14
2023-05-08T01:18:36.886Z,12.12
2023-05-08T01:21:57.425Z,12.16
2023-05-08T01:25:26.177Z,12.20
2023-05-08T01:29:04.779Z,12.26
2023-05-08T01:32:31.197Z,12.29
2023-05-08T01:35:43.104Z,12.32
2023-05-08T01:39:07.390Z,12.32
2023-05-08T01:42:29.177Z,12.27
2023-05-08T01:45:41.830Z,12.25
2023-05-08T01:48:57.236Z,12.14
2023-05-08T01:52:10.013Z,12.13
2023-05-08T01:55:30.190Z,12.06
2023-05-08T01:58:41.738Z,12.03
2023-05-08T02:01:52.197Z,12.01
2023-05-08T02:05:10.556Z,11.92
2023-05-08T02:08:21.171Z,11.99
2023-05-08T02:11:38.253Z,11.96
2023-05-08T02:14:49.276Z,11.99
2023-05-08T02:17:59.538Z,11.99
2023-05-08T02:21:10.290Z,11.99
2023-05-08T02:24:19.506Z,11.97
2023-05-08T02:27:35.165Z,11.99
2023-05-08T02:30:37.610Z,11.98
2023-05-08T02:33:53.188Z,11.93
2023-05-08T02:37:14.765Z,11.97
2023-05-08T02:40:32.221Z,12.12
2023-05-08T02:43:48.254Z,12.07
2023-05-08T02:47:12.745Z,11.91
2023-05-08T02:50:36.195Z,11.96
2023-05-08T02:53:58.215Z,12.09
2023-05-08T02:57:13.203Z,12.05
2023-05-08T03:00:35.235Z,12.05
2023-05-08T03:03:43.078Z,12.10
2023-05-08T03:07:01.192Z,11.91
2023-05-08T03:10:13.456Z,12.01
2023-05-08T03:13:22.980Z,12.02
2023-05-08T03:16:44.553Z,12.01
2023-05-08T03:19:52.827Z,12.01
2023-05-08T03:23:11.215Z,11.97
2023-05-08T03:26:27.200Z,11.92
2023-05-08T03:29:46.220Z,11.90
2023-05-08T03:32:50.107Z,11.81
2023-05-08T03:36:06.558Z,11.80
2023-05-08T03:39:15.231Z,11.91
2023-05-08T03:42:31.406Z,11.93
2023-05-08T03:45:43.203Z,11.93
2023-05-08T03:48:59.285Z,12.00
2023-05-08T03:52:01.351Z,12.18
2023-05-08T03:55:16.557Z,12.23
2023-05-08T03:58:32.748Z,12.29
2023-05-08T04:01:59.271Z,12.27
2023-05-08T04:05:27.271Z,12.29
2023-05-08T04:08:45.700Z,12.33
2023-05-08T04:12:10.536Z,12.26
2023-05-08T04:15:28.280Z,12.22
2023-05-08T04:18:50.780Z,12.31
2023-05-08T04:21:56.806Z,12.40
2023-05-08T04:25:14.450Z,12.42
2023-05-08T04:28:26.624Z,12.56
2023-05-08T04:31:36.327Z,12.69
2023-05-08T04:34:51.558Z,12.63
2023-05-08T04:37:53.749Z,12.67
2023-05-08T04:41:15.293Z,12.58
2023-05-08T04:44:26.781Z,12.68
2023-05-08T04:47:36.168Z,12.60
2023-05-08T04:50:52.241Z,12.67
2023-05-08T04:54:07.268Z,12.65
2023-05-08T04:57:08.952Z,12.47
2023-05-08T05:00:23.286Z,12.55
2023-05-08T05:03:31.289Z,12.59
2023-05-08T05:06:40.735Z,12.63
2023-05-08T05:09:49.232Z,12.71
2023-05-08T05:13:04.617Z,12.69
2023-05-08T05:16:07.057Z,12.60
2023-05-08T05:19:22.112Z,12.63
2023-05-08T05:22:39.282Z,12.71
2023-05-08T05:25:41.288Z,12.87
2023-05-08T05:28:56.283Z,12.92
2023-05-08T05:32:07.965Z,12.81
2023-05-08T05:35:24.245Z,12.69
2023-05-08T05:38:34.445Z,12.85
2023-05-08T05:41:49.931Z,12.95
2023-05-08T05:45:15.515Z,12.89
2023-05-08T05:48:32.200Z,12.83
2023-05-08T05:51:47.288Z,12.93
2023-05-08T05:54:49.356Z,12.96
2023-05-08T05:58:04.410Z,12.94
2023-05-08T06:01:06.386Z,12.74
2023-05-08T06:04:21.423Z,12.91
2023-05-08T06:07:30.827Z,13.11
2023-05-08T06:10:40.216Z,12.94
2023-05-08T06:13:58.976Z,12.98
2023-05-08T06:17:03.439Z,13.19
2023-05-08T06:20:19.292Z,13.11
2023-05-08T06:23:21.048Z,13.40
2023-05-08T06:26:35.674Z,13.46
2023-05-08T06:29:44.414Z,13.51
2023-05-08T06:33:00.201Z,13.52
2023-05-08T06:36:10.304Z,13.63
2023-05-08T06:39:37.511Z,13.48
2023-05-08T06:42:52.322Z,13.71
2023-05-08T06:46:01.166Z,13.91
2023-05-08T06:49:16.329Z,14.04
2023-05-08T06:52:24.977Z,14.33
2023-05-08T06:55:34.317Z,14.45
2023-05-08T06:59:00.463Z,15.07
2023-05-08T07:02:15.881Z,14.91
2023-05-08T07:05:30.597Z,15.52
2023-05-08T07:08:39.658Z,15.39
2023-05-08T07:12:09.562Z,15.59
2023-05-08T07:15:26.140Z,16.05
2023-05-08T07:18:46.069Z,15.97
2023-05-08T07:21:55.280Z,15.64
2023-05-08T07:25:11.684Z,15.54
2023-05-08T07:28:21.286Z,15.80
2023-05-08T07:31:31.388Z,15.81
2023-05-08T07:34:40.134Z,15.99
2023-05-08T07:37:50.664Z,15.87
2023-05-08T07:41:05.996Z,16.00
2023-05-08T07:44:14.337Z,15.95
2023-05-08T07:47:30.399Z,16.11
2023-05-08T07:50:38.958Z,15.66
2023-05-08T07:53:47.395Z,15.87
2023-05-08T07:56:56.217Z,16.08
2023-05-08T08:00:13.568Z,15.65
2023-05-08T08:03:22.387Z,15.47
2023-05-08T08:06:30.692Z,16.07
2023-05-08T08:09:45.375Z,16.06
2023-05-08T08:12:47.860Z,15.71
2023-05-08T08:16:03.729Z,15.95
2023-05-08T08:19:05.754Z,15.92
2023-05-08T08:22:20.354Z,15.99
2023-05-08T08:25:24.037Z,16.28
2023-05-08T08:28:40.021Z,16.41
2023-05-08T08:31:44.997Z,16.87
2023-05-08T08:35:02.494Z,16.82
2023-05-08T08:38:04.352Z,16.77
2023-05-08T08:41:21.673Z,16.41
2023-05-08T08:44:29.429Z,16.59
2023-05-08T08:51:30.454Z,17.06
2023-05-08T08:54:44.027Z,17.09
2023-05-08T08:58:04.435Z,16.91
2023-05-08T09:01:25.667Z,17.23
2023-05-08T09:04:33.985Z,17.43
2023-05-08T09:07:45.368Z,17.27
2023-05-08T09:10:55.806Z,17.26
2023-05-08T09:14:05.379Z,17.47
2023-05-08T09:17:35.380Z,17.64
2023-05-08T09:20:48.408Z,18.04
2023-05-08T09:24:08.414Z,17.49
2023-05-08T09:27:21.447Z,17.60
2023-05-08T09:30:37.712Z,17.52
2023-05-08T09:33:51.757Z,19.63
2023-05-08T09:37:12.079Z,25.68
2023-05-08T09:40:28.438Z,26.50
2023-05-08T09:43:38.153Z,27.91
2023-05-08T09:46:52.461Z,29.06
2023-05-08T09:50:10.415Z,30.84
2023-05-08T09:53:25.442Z,31.39
2023-05-08T09:56:40.187Z,32.81
2023-05-08T09:59:48.308Z,33.03
2023-05-08T10:03:07.444Z,32.69
2023-05-08T10:06:23.461Z,32.77
2023-05-08T10:09:46.755Z,32.17
2023-05-08T10:13:05.485Z,33.48
2023-05-08T10:16:14.874Z,33.51
2023-05-08T10:19:32.194Z,31.59
2023-05-08T10:22:44.539Z,32.11
2023-05-08T10:26:14.720Z,31.19
2023-05-08T10:29:39.469Z,33.18
2023-05-08T10:32:44.335Z,32.38
2023-05-08T10:36:08.562Z,32.23
2023-05-08T10:39:11.750Z,32.62
2023-05-08T10:42:35.037Z,33.16
2023-05-08T10:45:44.505Z,33.10
2023-05-08T10:49:18.993Z,32.80
2023-05-08T10:52:48.524Z,33.42
2023-05-08T10:56:04.542Z,33.63
2023-05-08T10:59:07.334Z,32.42
2023-05-08T11:02:22.475Z,33.16
2023-05-08T11:05:30.502Z,32.76
2023-05-08T11:08:59.820Z,32.56
2023-05-08T11:12:24.480Z,31.41
2023-05-08T11:15:45.754Z,31.01
2023-05-08T11:19:15.224Z,30.92
2023-05-08T11:22:26.673Z,32.04
2023-05-08T11:25:50.219Z,31.49
2023-05-08T11:28:58.559Z,31.27
2023-05-08T11:32:13.530Z,31.42
2023-05-08T11:35:51.574Z,30.52
2023-05-08T11:39:09.427Z,26.31
2023-05-08T11:42:40.647Z,24.64
2023-05-08T11:45:53.508Z,23.22
2023-05-08T11:49:02.421Z,22.98
2023-05-08T11:52:11.809Z,22.79
2023-05-08T11:55:33.576Z,22.78
2023-05-08T11:58:35.222Z,22.75
2023-05-08T12:02:06.962Z,22.63
2023-05-08T12:05:11.861Z,22.70
2023-05-08T12:08:29.532Z,22.23
2023-05-08T12:11:34.212Z,21.97
2023-05-08T12:14:55.564Z,22.06
2023-05-08T12:18:10.829Z,22.24
2023-05-08T12:21:21.560Z,22.59
2023-05-08T12:24:32.554Z,22.32
2023-05-08T12:27:49.630Z,22.44
2023-05-08T12:30:58.942Z,22.35
2023-05-08T12:34:07.803Z,22.25
2023-05-08T12:37:15.823Z,22.01
2023-05-08T12:40:34.569Z,22.42
2023-05-08T12:43:53.899Z,21.73
2023-05-08T12:47:10.608Z,21.92
2023-05-08T12:50:22.673Z,21.78
2023-05-08T12:53:39.931Z,21.62
2023-05-08T12:56:50.375Z,21.26
2023-05-08T13:00:13.115Z,21.28
2023-05-08T13:03:32.618Z,21.58
2023-05-08T13:06:56.814Z,21.62
2023-05-08T13:10:03.386Z,21.70
2023-05-08T13:13:18.008Z,21.72
2023-05-08T13:16:26.486Z,21.45
2023-05-08T13:19:57.506Z,21.85
2023-05-08T13:22:59.322Z,21.99
2023-05-08T13:26:13.626Z,22.18
2023-05-08T13:29:37.880Z,21.96
2023-05-08T13:32:54.013Z,21.87
2023-05-08T13:36:03.484Z,21.79
2023-05-08T13:39:19.606Z,21.58
2023-05-08T13:42:28.591Z,22.03
2023-05-08T13:45:45.869Z,22.16
2023-05-08T13:49:01.826Z,22.41
2023-05-08T13:52:11.608Z,21.82
2023-05-08T13:55:21.606Z,21.50
2023-05-08T13:58:31.127Z,21.80
2023-05-08T14:01:45.859Z,22.02
2023-05-08T14:04:51.963Z,22.04
2023-05-08T14:08:09.905Z,22.16
2023-05-08T14:11:25.910Z,22.46
2023-05-08T14:14:27.711Z,22.32
2023-05-08T14:17:42.891Z,22.55
2023-05-08T14:20:57.356Z,22.48
2023-05-08T14:24:11.983Z,22.34
2023-05-08T14:27:26.632Z,22.46
2023-05-08T14:30:35.953Z,22.49
2023-05-08T14:33:51.667Z,22.61
2023-05-08T14:36:53.469Z,22.61
2023-05-08T14:40:09.662Z,22.40
2023-05-08T14:43:25.042Z,22.45
2023-05-08T14:46:33.280Z,22.15
2023-05-08T14:49:44.698Z,22.02
2023-05-08T14:52:57.303Z,21.93
2023-05-08T14:56:14.779Z,22.19
2023-05-08T14:59:30.992Z,22.29
2023-05-08T15:02:40.221Z,21.97
2023-05-08T15:05:50.834Z,21.53
2023-05-08T15:09:00.044Z,21.34
2023-05-08T15:12:28.391Z,20.89
2023-05-08T15:15:39.278Z,21.03
2023-05-08T15:18:53.697Z,20.93
2023-05-08T15:21:57.333Z,20.76
2023-05-08T15:25:13.838Z,20.85
2023-05-08T15:28:22.651Z,20.69
2023-05-08T15:31:39.739Z,20.88
2023-05-08T15:38:19.583Z,20.83
2023-05-08T15:41:44.756Z,20.71
2023-05-08T15:45:15.973Z,20.58
2023-05-08T15:48:28.641Z,20.27
2023-05-08T15:51:38.838Z,20.15
2023-05-08T15:54:54.740Z,20.15
2023-05-08T16:01:26.437Z,20.17
2023-05-08T16:04:40.990Z,20.07
2023-05-08T16:07:44.893Z,20.12
2023-05-08T16:11:01.172Z,19.76
2023-05-08T16:14:03.237Z,19.36
2023-05-08T16:17:23.084Z,19.39
2023-05-08T16:20:29.258Z,19.14
2023-05-08T16:23:46.939Z,19.16
2023-05-08T16:26:55.158Z,18.81
2023-05-08T16:30:11.743Z,18.86
2023-05-08T16:33:19.698Z,18.73
2023-05-08T16:36:35.707Z,18.59
2023-05-08T16:39:38.918Z,18.22
2023-05-08T16:43:00.731Z,18.16
2023-05-08T16:46:09.494Z,18.08
2023-05-08T16:49:24.303Z,18.10
2023-05-08T16:52:32.841Z,17.91
2023-05-08T16:55:41.366Z,17.84
2023-05-08T16:58:50.517Z,17.59
2023-05-08T17:01:58.878Z,17.45
2023-05-08T17:05:08.044Z,17.47
2023-05-08T17:08:17.290Z,17.31
2023-05-08T17:11:26.057Z,17.11
2023-05-08T17:14:34.378Z,16.93
2023-05-08T17:17:42.868Z,16.90
2023-05-08T17:21:01.815Z,16.86
2023-05-08T17:24:09.789Z,16.59
2023-05-08T17:27:18.454Z,16.53
2023-05-08T17:30:26.990Z,16.34
2023-05-08T17:33:38.571Z,16.20
2023-05-08T17:36:54.511Z,16.15
2023-05-08T17:39:57.003Z,15.85
2023-05-08T17:43:20.560Z,15.91
2023-05-08T17:46:28.762Z,15.80
2023-05-08T17:49:37.422Z,15.69
2023-05-08T17:52:45.793Z,15.56
2023-05-08T17:55:54.335Z,15.40
2023-05-08T17:59:02.839Z,15.44
2023-05-08T18:02:11.354Z,15.23
2023-05-08T18:05:19.770Z,15.24
2023-05-08T18:08:28.560Z,15.20
2023-05-08T18:11:36.782Z,15.13
2023-05-08T18:14:52.027Z,15.01
2023-05-08T18:18:03.397Z,15.00
2023-05-08T18:21:12.885Z,14.75
2023-05-08T18:24:21.889Z,14.80
2023-05-08T18:27:36.785Z,14.66
2023-05-08T18:30:51.747Z,14.46
2023-05-08T18:33:54.145Z,14.52
2023-05-08T18:37:08.801Z,14.45
2023-05-08T18:40:17.804Z,14.42
2023-05-08T18:43:39.866Z,14.39
2023-05-08T18:46:41.710Z,14.20
2023-05-08T18:49:57.852Z,14.03
2023-05-08T18:52:59.694Z,14.04
2023-05-08T18:56:14.887Z,14.13
2023-05-08T18:59:22.816Z,14.02
2023-05-08T19:02:37.779Z,13.92
2023-05-08T19:05:46.383Z,13.86
2023-05-08T19:08:55.501Z,13.76
2023-05-08T19:12:03.671Z,13.76
2023-05-08T19:15:13.025Z,13.68
2023-05-08T19:18:21.683Z,13.67
2023-05-08T19:21:37.817Z,13.60
2023-05-08T19:24:52.917Z,13.49
2023-05-08T19:28:00.772Z,13.38
2023-05-08T19:31:29.786Z,13.42
2023-05-08T19:34:37.874Z,13.46
2023-05-08T19:37:53.097Z,13.37
2023-05-08T19:41:15.089Z,13.35
2023-05-08T19:44:23.396Z,13.33
2023-05-08T19:47:37.782Z,13.32
2023-05-08T19:50:45.809Z,13.13
2023-05-08T19:53:54.413Z,13.12
2023-05-08T19:57:02.907Z,13.14
2023-05-08T20:00:17.849Z,13.17
2023-05-08T20:03:28.029Z,13.09
2023-05-08T20:06:42.830Z,13.07
2023-05-08T20:09:44.759Z,13.17
2023-05-08T20:13:00.901Z,13.13
2023-05-08T20:16:15.883Z,13.09
2023-05-08T20:19:17.635Z,13.09
2023-05-08T20:22:32.860Z,13.09
2023-05-08T20:25:47.851Z,12.95
2023-05-08T20:28:49.866Z,12.98
2023-05-08T20:32:04.834Z,12.97
2023-05-08T20:35:14.953Z,12.91
2023-05-08T20:38:23.418Z,12.91
2023-05-08T20:41:31.919Z,12.84
2023-05-08T20:44:47.578Z,12.82
2023-05-08T20:48:02.191Z,12.82
2023-05-08T20:51:04.376Z,12.82
2023-05-08T20:54:19.157Z,12.81
2023-05-08T20:57:20.872Z,12.73
2023-05-08T21:00:35.954Z,12.72
2023-05-08T21:03:37.636Z,12.61
2023-05-08T21:06:52.359Z,12.59
2023-05-08T21:10:00.841Z,12.59
2023-05-08T21:13:19.015Z,12.54
2023-05-08T21:16:21.136Z,12.51
2023-05-08T21:19:37.845Z,12.43
2023-05-08T21:22:52.970Z,12.42
2023-05-08T21:26:01.407Z,12.41
2023-05-08T21:29:15.889Z,12.34
2023-05-08T21:32:17.635Z,12.42
2023-05-08T21:35:31.864Z,12.39
2023-05-08T21:38:41.341Z,12.32
2023-05-08T21:41:50.130Z,12.39
2023-05-08T21:44:59.131Z,12.39
2023-05-08T21:48:08.728Z,12.34
2023-05-08T21:51:23.879Z,12.31
2023-05-08T21:54:32.537Z,12.28
2023-05-08T21:57:42.502Z,12.22
2023-05-08T22:00:50.526Z,12.22
2023-05-08T22:04:05.279Z,12.23
2023-05-08T22:07:07.013Z,12.25
2023-05-08T22:10:21.934Z,12.14
2023-05-08T22:13:23.704Z,12.13
2023-05-08T22:16:39.001Z,12.13
2023-05-08T22:19:46.896Z,12.14
2023-05-08T22:22:55.573Z,12.13
2023-05-08T22:26:04.181Z,12.16
2023-05-08T22:29:12.698Z,12.16
2023-05-08T22:32:21.632Z,12.04
2023-05-08T22:35:36.035Z,12.00
2023-05-08T22:38:43.929Z,11.99
2023-05-08T22:41:58.889Z,11.84
2023-05-08T22:45:14.440Z,11.85
2023-05-08T22:48:28.970Z,11.84
2023-05-08T22:51:30.627Z,11.86
2023-05-08T22:54:47.916Z,11.82
2023-05-08T22:57:56.397Z,11.78
2023-05-08T23:01:04.959Z,11.77
2023-05-08T23:04:13.439Z,11.69
2023-05-08T23:07:22.038Z,11.65
2023-05-08T23:10:36.918Z,11.65
2023-05-08T23:13:47.941Z,11.63
2023-05-08T23:17:03.004Z,11.58
2023-05-08T23:20:17.929Z,11.56
2023-05-08T23:23:19.880Z,11.48
2023-05-08T23:26:34.940Z,11.46
2023-05-08T23:29:36.589Z,11.42
2023-05-08T23:32:51.961Z,11.33
2023-05-08T23:35:55.792Z,11.30
2023-05-08T23:39:10.998Z,11.26
2023-05-08T23:42:13.119Z,11.26
2023-05-08T23:45:27.969Z,11.20
2023-05-08T23:48:35.957Z,11.24
2023-05-08T23:51:44.352Z,11.28
2023-05-08T23:54:58.962Z,11.02
2023-05-08T23:58:07.574Z,11.09
